Latest Weather Observations for Braidwood

IDN60801

Issued at 6:32 pm EST Monday 3 August 2015 (issued every 30 minutes, with the page automatically refreshed every 10 minutes)

About weather observations | Map of weather stations | Latest weather observations for NSW | Other Formats
Station Details ID: 069132 Name: BRAIDWOOD RACECOURSE AWS Lat: -35.43 Lon: 149.78 Height: 665.2 m
Data from the previous 72 hours. | See also: Recent months at Braidwood
Date/Time
EST
Temp
°C
App
Temp
°C
Dew
Point
Rel
Hum
%
Delta-T
°C
Wind Press
QNH
hPa
Press
MSL
hPa
Rain
since 9 am
mm
Dir
 
Spd
km/h
Gust
km/h
Spd
kts
Gust
kts
03/06:30pm 4.0 1.2 -0.6 72 1.8 NW 4 6 2 3 1017.2 1018.0 0.2
03/06:00pm 6.1 2.8 0.0 65 2.5 W 7 15 4 8 1016.6 1017.4 0.2
03/05:30pm 6.3 1.5 0.4 66 2.4 W 15 20 8 11 1015.9 1016.6 0.2
03/05:00pm 7.3 3.0 0.7 63 2.7 WNW 13 19 7 10 1015.2 1016.0 0.2
03/04:30pm 8.1 2.9 0.3 58 3.2 WNW 17 24 9 13 1014.6 1015.3 0.2
03/04:00pm 9.0 3.4 1.0 57 3.4 WNW 20 30 11 16 1014.2 1014.9 0.2
03/03:30pm 10.2 5.5 1.1 53 3.9 NW 15 24 8 13 1013.8 1014.6 0.2
03/03:00pm 10.0 5.3 0.6 52 4.0 WNW 15 22 8 12 1013.4 1014.1 0.2
03/02:30pm 10.4 4.9 0.7 51 4.1 WNW 19 26 10 14 1012.9 1013.6 0.2
03/02:00pm 10.3 2.5 1.4 54 3.9 WNW 32 41 17 22 1011.9 1012.6 0.2
03/01:30pm 9.9 1.3 0.3 51 4.0 WNW 35 46 19 25 1011.5 1012.2 0.2
03/01:09pm 9.9 2.0 0.8 53 3.9 WNW 32 50 17 27 1011.6 1012.3 0.2
03/01:00pm 10.0 1.8 0.6 52 4.0 WNW 33 44 18 24 1011.4 1012.1 0.2
03/12:30pm 10.1 2.5 0.4 51 4.1 WNW 30 41 16 22 1011.6 1012.3 0.0
03/12:00pm 10.1 2.9 0.7 52 4.0 WNW 28 41 15 22 1011.9 1012.6 0.0
03/11:30am 9.7 2.4 0.3 52 4.0 NW 28 44 15 24 1011.6 1012.3 0.0
03/11:00am 10.1 3.9 2.0 57 3.6 WNW 24 35 13 19 1011.9 1012.6 0.0
03/10:30am 9.1 3.6 0.8 56 3.5 NW 19 32 10 17 1012.0 1012.7 0.0
03/10:00am 8.8 3.8 1.5 60 3.1 NW 17 39 9 21 1012.0 1012.7 0.0
03/09:30am 8.9 5.0 1.3 59 3.2 N 11 22 6 12 1012.0 1012.7 0.0
03/09:00am 8.0 4.4 0.5 59 3.1 NW 9 22 5 12 1012.0 1012.7 0.8
03/08:30am 6.8 1.1 0.3 63 2.7 WNW 20 37 11 20 1011.8 1012.5 0.8
03/08:00am 6.6 1.9 0.9 67 2.4 NW 15 30 8 16 1011.4 1012.1 0.8
03/07:30am 6.3 1.6 0.6 67 2.3 NW 15 32 8 17 1011.1 1011.7 0.8
03/07:00am 5.3 1.7 0.5 71 1.9 N 9 24 5 13 1010.6 1011.3 0.8
03/06:30am 5.4 2.1 0.4 70 2.0 NNW 7 15 4 8 1010.4 1011.1 0.8
03/06:00am 5.4 1.0 0.4 70 2.0 NNW 13 26 7 14 1010.3 1011.0 0.8
03/05:30am 5.9 1.9 0.7 69 2.1 NNW 11 20 6 11 1010.1 1010.8 0.8
03/05:00am 5.8 2.3 1.2 72 1.9 NNW 9 19 5 10 1010.2 1010.9 0.8
03/04:30am 5.5 2.0 1.2 74 1.8 N 9 20 5 11 1010.2 1010.9 0.8
03/04:00am 5.1 1.2 0.9 74 1.7 N 11 22 6 12 1010.1 1010.8 0.8
03/03:30am 5.4 1.4 0.8 72 1.9 NNW 11 26 6 14 1010.6 1011.3 0.8
03/03:00am 4.9 0.2 0.7 74 1.7 NW 15 28 8 15 1010.8 1011.5 0.8
03/02:30am 4.9 -0.6 0.3 72 1.8 NW 19 35 10 19 1011.3 1012.0 0.8
03/02:00am 4.9 -1.2 0.3 72 1.8 NW 22 35 12 19 1011.6 1012.3 0.8
03/01:30am 4.0 -1.2 -0.2 74 1.6 NW 17 26 9 14 1012.1 1012.8 0.8
03/01:00am 4.0 -1.3 -0.8 71 1.9 NW 17 24 9 13 1012.6 1013.3 0.8
03/12:30am 4.3 -2.0 -1.1 68 2.1 NW 22 37 12 20 1012.8 1013.5 0.8
03/12:00am 4.5 -2.2 -1.1 67 2.2 NW 24 46 13 25 1013.0 1013.7 0.8
 
Date/Time
EST
Temp
°C
App
Temp
°C
Dew
Point
Rel
Hum
%
Delta-T
°C
Wind Press
QNH
hPa
Press
MSL
hPa
Rain
since 9 am
mm
Dir
 
Spd
km/h
Gust
km/h
Spd
kts
Gust
kts
02/11:30pm 4.2 -2.0 -0.6 71 1.9 NW 22 32 12 17 1013.3 1014.0 0.8
02/11:00pm 3.5 -2.2 -0.5 75 1.5 NW 19 32 10 17 1013.3 1014.0 0.8
02/10:30pm 3.7 -1.6 -0.3 75 1.6 NNW 17 28 9 15 1013.4 1014.1 0.8
02/10:00pm 4.1 -1.7 -0.3 73 1.7 NW 20 32 11 17 1013.4 1014.1 0.8
02/09:30pm 4.5 -2.0 0.1 73 1.7 NW 24 35 13 19 1013.4 1014.1 0.8
02/09:00pm 4.8 -0.7 0.8 75 1.6 NW 19 28 10 15 1013.5 1014.2 0.8
02/08:30pm 5.1 0.1 1.2 76 1.6 NW 17 30 9 16 1013.6 1014.3 0.8
02/08:00pm 5.8 0.4 1.5 74 1.8 NW 19 32 10 17 1013.2 1013.9 0.8
02/07:30pm 6.3 1.4 1.8 73 1.9 NW 17 26 9 14 1013.1 1013.8 0.8
02/07:00pm 6.6 2.6 2.7 76 1.7 NNW 13 20 7 11 1013.1 1013.8 0.8
02/06:30pm 6.9 4.6 3.0 76 1.7 NNE 4 9 2 5 1013.1 1013.8 0.8
02/06:00pm 7.7 4.5 3.2 73 2.0 NNW 9 19 5 10 1012.3 1013.0 0.8
02/05:30pm 8.5 3.9 3.9 73 2.1 NNW 17 33 9 18 1011.5 1012.2 0.8
02/05:00pm 9.5 4.6 4.9 73 2.2 NW 20 33 11 18 1010.7 1011.4 0.8
02/04:30pm 10.4 4.9 6.0 74 2.1 NW 24 44 13 24 1010.6 1011.3 0.8
02/04:00pm 10.5 5.1 6.5 76 2.0 NW 24 37 13 20 1010.5 1011.2 0.8
02/03:30pm 11.3 5.7 7.0 75 2.1 NW 26 44 14 24 1010.0 1010.7 0.8
02/03:00pm 11.1 6.7 7.2 77 1.9 NW 20 35 11 19 1010.1 1010.8 0.8
02/02:30pm 10.9 4.8 6.8 76 2.0 NW 28 50 15 27 1010.7 1011.4 0.8
02/02:19pm 12.1 5.5 5.9 66 3.0 NW 30 50 16 27 1010.2 1010.9 0.8
02/02:00pm 13.7 8.9 7.2 65 3.3 NW 22 35 12 19 1009.4 1010.0 0.8
02/01:30pm 12.7 7.7 6.3 65 3.2 NW 22 41 12 22 1009.5 1010.1 0.8
02/01:03pm 13.1 6.2 6.5 64 3.3 NW 32 52 17 28 1010.1 1010.8 0.8
02/01:00pm 13.4 6.4 7.0 65 3.2 NW 33 52 18 28 1010.3 1011.0 0.8
02/12:47pm 13.3 7.2 6.6 64 3.3 NW 28 48 15 26 1009.8 1010.4 0.8
02/12:30pm 12.8 6.6 6.2 64 3.2 NW 28 43 15 23 1009.9 1010.5 0.8
02/12:10pm 13.8 7.8 6.9 63 3.5 NW 28 48 15 26 1010.4 1011.1 0.8
02/12:00pm 13.8 9.1 7.6 66 3.2 NW 22 35 12 19 1010.6 1011.3 0.8
02/11:30am 12.8 10.0 8.5 75 2.2 NNW 13 32 7 17 1011.3 1012.0 0.8
02/11:00am 11.7 9.0 8.9 83 1.4 NNW 13 22 7 12 1011.6 1012.3 0.8
02/10:30am 10.6 7.9 8.9 89 0.9 NNW 13 22 7 12 1012.1 1012.8 0.8
02/10:00am 8.8 5.8 7.9 94 0.4 N 13 26 7 14 1012.4 1013.1 0.6
02/09:30am 8.3 5.6 7.4 94 0.4 N 11 22 6 12 1013.1 1013.8 0.6
02/09:00am 8.0 5.2 7.1 94 0.4 NNE 11 17 6 9 1013.4 1014.1 25.8
02/08:30am 8.3 5.6 7.4 94 0.4 N 11 28 6 15 1014.3 1015.0 24.2
02/08:00am 7.7 7.0 7.0 95 0.3 CALM 0 0 0 0 1014.6 1015.3 22.2
02/07:30am 7.7 5.6 6.8 94 0.4 NW 7 13 4 7 1015.5 1016.3 20.4
02/07:00am 7.6 5.7 6.9 95 0.3 NNW 6 9 3 5 1014.9 1015.6 18.6
02/06:30am 7.6 5.7 6.7 94 0.4 N 6 11 3 6 1014.8 1015.5 17.6
02/06:00am 7.5 6.3 6.6 94 0.4 N 2 9 1 5 1014.9 1015.6 16.0
02/05:30am 7.8 6.7 6.7 93 0.5 N 2 6 1 3 1014.5 1015.2 15.6
02/05:00am 7.9 6.4 6.8 93 0.5 NNW 4 6 2 3 1015.2 1016.0 15.4
02/04:30am 8.2 6.1 6.8 91 0.7 NNW 7 17 4 9 1015.3 1016.1 13.4
02/04:00am 8.1 6.6 6.7 91 0.7 N 4 7 2 4 1015.2 1016.0 12.0
02/03:30am 8.4 6.0 6.9 90 0.7 NW 9 19 5 10 1015.6 1016.4 11.2
02/03:00am 8.4 5.2 6.9 90 0.7 WNW 13 19 7 10 1015.8 1016.5 9.6
02/02:30am 8.3 5.1 6.8 90 0.7 NW 13 22 7 12 1015.8 1016.5 6.8
02/02:00am 8.6 3.6 6.4 86 1.1 WNW 22 32 12 17 1016.3 1017.0 5.2
02/01:30am 8.6 3.2 6.4 86 1.1 NW 24 35 13 19 1016.3 1017.0 4.4
02/01:00am 8.2 2.4 6.2 87 0.9 NW 26 37 14 20 1016.3 1017.0 3.4
02/12:30am 8.4 2.6 6.4 87 1.0 NW 26 44 14 24 1016.6 1017.4 1.8
02/12:00am 8.3 6.1 6.1 86 1.0 NNW 7 19 4 10 1016.8 1017.6 0.4
 
Date/Time
EST
Temp
°C
App
Temp
°C
Dew
Point
Rel
Hum
%
Delta-T
°C
Wind Press
QNH
hPa
Press
MSL
hPa
Rain
since 9 am
mm
Dir
 
Spd
km/h
Gust
km/h
Spd
kts
Gust
kts
01/11:30pm 8.6 6.3 5.7 82 1.4 N 7 15 4 8 1016.7 1017.5 0.2
01/11:00pm 9.0 6.8 5.2 77 1.8 NNE 6 11 3 6 1016.6 1017.4 0.0
01/10:30pm 9.7 7.3 5.1 73 2.2 NNE 7 20 4 11 1016.6 1017.4 0.0
01/10:00pm 9.5 6.7 5.1 74 2.1 NE 9 15 5 8 1016.6 1017.4 0.0
01/09:30pm 9.5 7.3 5.1 74 2.1 NE 6 9 3 5 1017.0 1017.8 0.0
01/09:00pm 8.9 6.6 4.9 76 1.9 ENE 6 9 3 5 1017.1 1017.9 0.0
01/08:30pm 9.0 6.7 5.0 76 1.9 NNE 6 9 3 5 1017.1 1017.9 0.0
01/08:00pm 9.0 6.7 5.0 76 1.9 NNE 6 13 3 7 1017.1 1017.9 0.0
01/07:30pm 9.5 7.3 5.5 76 1.9 NNE 6 13 3 7 1016.5 1017.3 0.0
01/07:00pm 9.7 7.4 5.5 75 2.0 NNE 7 13 4 7 1016.2 1016.9 0.0
01/06:30pm 10.3 7.6 5.5 72 2.3 NNE 9 17 5 9 1015.2 1016.0 0.0
01/06:00pm 10.7 8.4 5.7 71 2.4 NNE 7 13 4 7 1015.3 1016.1 0.0
01/05:30pm 11.1 8.8 5.8 70 2.6 NNE 7 22 4 12 1014.7 1015.4 0.0
01/05:00pm 11.6 8.6 5.9 68 2.8 NNW 11 20 6 11 1014.3 1015.0 0.0
01/04:30pm 12.8 9.4 5.9 63 3.4 NW 13 26 7 14 1013.2 1013.9 0.0
01/04:00pm 14.2 9.1 5.8 57 4.1 NW 22 37 12 20 1012.8 1013.5 0.0
01/03:46pm 14.0 8.7 5.1 55 4.3 NW 22 46 12 25 1013.0 1013.7 0.0
01/03:30pm 14.3 9.9 4.6 52 4.7 NW 17 30 9 16 1012.4 1013.1 0.0
01/03:00pm 14.1 8.6 4.1 51 4.8 NW 22 37 12 20 1012.8 1013.5 0.0
01/02:30pm 13.9 6.8 3.7 50 4.8 WNW 30 54 16 29 1013.2 1013.9 0.0
01/02:16pm 13.7 6.6 3.5 50 4.8 WNW 30 54 16 29 1012.9 1013.6 0.0
01/02:00pm 13.4 8.3 4.3 54 4.3 NW 20 35 11 19 1012.8 1013.5 0.0
01/01:30pm 13.2 7.7 3.8 53 4.4 NW 22 43 12 23 1012.8 1013.5 0.0
01/01:00pm 13.2 7.4 2.4 48 4.9 NW 22 39 12 21 1012.6 1013.3 0.0
01/12:30pm 12.9 7.5 2.7 50 4.7 NW 20 39 11 21 1012.6 1013.3 0.0
01/12:00pm 13.8 7.7 3.0 48 5.0 NW 24 41 13 22 1013.0 1013.7 0.0
01/11:30am 12.6 6.6 3.3 53 4.3 NW 24 43 13 23 1013.4 1014.1 0.0
01/11:00am 12.2 7.7 4.4 59 3.7 NNW 17 30 9 16 1014.2 1014.9 0.0
01/10:30am 11.1 6.3 4.6 64 3.1 NW 19 32 10 17 1013.8 1014.6 0.0
01/10:00am 9.8 5.2 3.8 66 2.7 NNW 17 28 9 15 1014.7 1015.4 0.0
01/09:30am 8.6 4.4 3.6 71 2.2 NNW 15 28 8 15 1014.9 1015.9 0.0
01/09:00am 7.9 3.6 3.2 72 2.1 NNW 15 22 8 12 1015.2 1016.3 0.0
01/08:30am 9.1 5.6 3.5 68 2.5 NNW 11 20 6 11 1015.4 1016.5 0.0
01/08:00am 7.2 4.4 3.3 76 1.7 N 7 17 4 9 1015.9 1016.9 0.0
01/07:30am 5.9 2.6 2.5 79 1.5 NNW 9 20 5 11 1015.6 1016.7 0.0
01/07:00am 5.8 2.1 2.4 79 1.4 NNW 11 19 6 10 1015.1 1016.1 0.0
01/06:30am 6.1 2.8 2.6 78 1.5 NNW 9 20 5 11 1014.8 1015.8 0.0
01/06:00am 6.6 2.7 3.2 79 1.5 NNW 13 20 7 11 1015.1 1016.1 0.0
01/05:30am 6.0 2.5 3.3 83 1.2 NNW 11 17 6 9 1015.5 1016.6 0.0
01/05:00am 6.1 2.1 3.1 81 1.3 NW 13 20 7 11 1015.8 1016.8 0.0
01/04:30am 7.5 1.1 3.4 75 1.8 NW 26 39 14 21 1015.9 1016.9 0.0
01/04:00am 8.0 0.4 3.8 75 1.9 WNW 33 43 18 23 1015.9 1016.9 0.0
01/03:30am 8.3 -0.1 3.9 74 2.0 WNW 37 52 20 28 1015.9 1016.9 0.0
01/03:00am 8.5 0.5 3.8 72 2.1 WNW 35 50 19 27 1016.0 1017.0 0.0
01/02:34am 8.0 -0.4 3.5 73 2.0 NW 37 56 20 30 1016.1 1017.1 0.0
01/02:30am 7.8 -0.7 3.3 73 2.0 NW 37 50 20 27 1016.1 1017.1 0.0
01/02:00am 7.6 0.5 3.3 74 1.9 NW 30 44 16 24 1016.5 1017.6 0.0
01/01:30am 7.2 4.1 3.4 77 1.7 NNW 9 26 5 14 1017.5 1018.5 0.0
01/01:00am 7.7 3.1 3.7 76 1.8 NW 17 30 9 16 1018.0 1019.1 0.0
01/12:30am 6.3 3.5 2.9 79 1.5 N 7 11 4 6 1018.1 1019.2 0.0
01/12:00am 6.4 3.6 3.0 79 1.5 N 7 17 4 9 1018.5 1019.6 0.0
 
Date/Time
EST
Temp
°C
App
Temp
°C
Dew
Point
Rel
Hum
%
Delta-T
°C
Wind Press
QNH
hPa
Press
MSL
hPa
Rain
since 9 am
mm
Dir
 
Spd
km/h
Gust
km/h
Spd
kts
Gust
kts
31/11:30pm 6.4 3.7 2.7 77 1.6 N 6 11 3 6 1019.5 1020.6 0.0
31/11:00pm 6.2 3.3 2.7 78 1.5 NNW 7 13 4 7 1020.1 1021.2 0.0
31/10:30pm 6.3 1.8 2.4 76 1.7 NW 15 28 8 15 1019.8 1020.9 0.0
31/10:00pm 5.5 2.2 2.7 82 1.2 NNW 9 17 5 9 1019.7 1020.8 0.0
31/09:30pm 4.1 1.5 1.1 81 1.2 NNW 4 11 2 6 1019.9 1021.0 0.0
31/09:00pm 5.7 2.8 2.7 81 1.3 NW 7 11 4 6 1020.0 1021.1 0.0
31/08:30pm 3.9 2.1 1.1 82 1.1 CALM 0 0 0 0 1020.0 1021.1 0.0
31/08:00pm 5.0 2.4 0.9 75 1.7 N 4 9 2 5 1019.8 1020.9 0.0
31/07:30pm 6.3 4.1 1.0 69 2.2 WNW 2 11 1 6 1019.5 1020.6 0.0
31/07:00pm 7.6 3.1 1.9 67 2.4 NW 15 22 8 12 1019.5 1020.6 0.0

Other Formats:

Comma delimited format used in spreadsheet applications
http://www.bom.gov.au/fwo/IDN60801/IDN60801.94927.axf

JavaScript Object Notation format (JSON) in row-major order
http://www.bom.gov.au/fwo/IDN60801/IDN60801.94927.json